createdAt,value
2023-05-02T00:00:57.168Z,102044.78
2023-05-02T00:03:30.156Z,102046.25
2023-05-02T00:06:08.662Z,102044.59
2023-05-02T00:08:43.821Z,102046.25
2023-05-02T00:11:16.937Z,102042.19
2023-05-02T00:13:49.855Z,102045.72
2023-05-02T00:16:22.919Z,102048.53
2023-05-02T00:18:57.981Z,102046.72
2023-05-02T00:21:42.119Z,102051.91
2023-05-02T00:24:15.517Z,102048.56
2023-05-02T00:26:48.903Z,102052.19
2023-05-02T00:29:22.019Z,102054.53
2023-05-02T00:31:57.577Z,102051.44
2023-05-02T00:34:31.561Z,102050.84
2023-05-02T00:37:06.370Z,102059.13
2023-05-02T00:39:41.783Z,102053.19
2023-05-02T00:42:14.655Z,102050.19
2023-05-02T00:44:47.660Z,102064.06
2023-05-02T00:47:21.032Z,102055.22
2023-05-02T00:49:54.118Z,102059.56
2023-05-02T00:52:30.206Z,102061.16
2023-05-02T00:55:03.805Z,102057.69
2023-05-02T00:57:36.839Z,102056.88
2023-05-02T01:00:16.222Z,102055.22
2023-05-02T01:02:54.292Z,102066.75
2023-05-02T01:05:35.099Z,102060.31
2023-05-02T01:08:26.053Z,102073.81
2023-05-02T01:11:07.083Z,102082.28
2023-05-02T01:13:41.914Z,102089.28
2023-05-02T01:16:18.647Z,102094.44
2023-05-02T01:18:52.525Z,102093.25
2023-05-02T01:21:29.698Z,102088.25
2023-05-02T01:24:12.222Z,102094.72
2023-05-02T01:26:53.651Z,102087.31
2023-05-02T01:29:30.168Z,102094.84
2023-05-02T01:32:04.255Z,102106.03
2023-05-02T01:34:39.612Z,102106.50
2023-05-02T01:37:14.562Z,102107.19
2023-05-02T01:39:49.477Z,102104.75
2023-05-02T01:42:23.748Z,102113.06
2023-05-02T01:45:00.929Z,102109.59
2023-05-02T01:47:36.611Z,102110.31
2023-05-02T01:50:13.024Z,102106.34
2023-05-02T01:52:47.881Z,102108.63
2023-05-02T01:55:21.180Z,102119.53
2023-05-02T01:57:57.814Z,102125.19
2023-05-02T02:00:34.142Z,102127.50
2023-05-02T02:03:08.497Z,102122.28
2023-05-02T02:05:42.213Z,102131.72
2023-05-02T02:08:14.950Z,102133.69
2023-05-02T02:10:55.010Z,102140.78
2023-05-02T02:13:33.835Z,102141.53
2023-05-02T02:16:13.781Z,102148.09
2023-05-02T02:18:47.029Z,102151.59
2023-05-02T02:21:21.692Z,102154.19
2023-05-02T02:23:58.485Z,102148.03
2023-05-02T02:26:31.479Z,102155.66
2023-05-02T02:29:04.569Z,102153.56
2023-05-02T02:31:39.823Z,102153.81
2023-05-02T02:34:14.121Z,102160.88
2023-05-02T02:36:51.383Z,102161.56
2023-05-02T02:39:36.945Z,102155.34
2023-05-02T02:42:15.496Z,102156.34
2023-05-02T02:45:02.667Z,102152.69
2023-05-02T02:47:43.406Z,102160.78
2023-05-02T02:50:22.594Z,102157.41
2023-05-02T02:53:00.194Z,102174.06
2023-05-02T02:55:41.582Z,102178.72
2023-05-02T02:58:24.567Z,102177.78
2023-05-02T03:00:58.149Z,102184.91
2023-05-02T03:03:34.644Z,102195.75
2023-05-02T03:06:08.307Z,102197.88
2023-05-02T03:08:41.484Z,102196.03
2023-05-02T03:11:17.670Z,102199.03
2023-05-02T03:13:50.542Z,102205.81
2023-05-02T03:16:35.240Z,102207.31
2023-05-02T03:19:10.539Z,102214.34
2023-05-02T03:21:43.781Z,102215.94
2023-05-02T03:24:27.558Z,102215.19
2023-05-02T03:27:00.798Z,102207.47
2023-05-02T03:29:39.149Z,102220.28
2023-05-02T03:32:12.051Z,102219.91
2023-05-02T03:34:51.421Z,102228.72
2023-05-02T03:37:24.778Z,102224.97
2023-05-02T03:43:14.739Z,102230.38
2023-05-02T03:45:48.785Z,102229.69
2023-05-02T03:48:22.967Z,102233.38
2023-05-02T03:50:57.394Z,102236.59
2023-05-02T03:53:33.982Z,102232.59
2023-05-02T03:56:08.028Z,102245.38
2023-05-02T03:58:50.575Z,102252.00
2023-05-02T04:01:28.631Z,102257.50
2023-05-02T04:04:06.364Z,102259.59
2023-05-02T04:06:45.026Z,102262.59
2023-05-02T04:09:19.563Z,102263.97
2023-05-02T04:12:00.184Z,102266.84
2023-05-02T04:14:33.834Z,102270.22
2023-05-02T04:17:06.734Z,102269.84
2023-05-02T04:19:45.176Z,102267.28
2023-05-02T04:22:22.383Z,102274.56
2023-05-02T04:24:59.230Z,102278.47
2023-05-02T04:27:33.304Z,102273.94
2023-05-02T04:30:07.689Z,102283.97
2023-05-02T04:32:40.974Z,102286.97
2023-05-02T04:35:15.695Z,102290.00
2023-05-02T04:37:50.311Z,102294.88
2023-05-02T04:40:24.260Z,102296.19
2023-05-02T04:43:04.928Z,102294.13
2023-05-02T04:45:45.607Z,102296.97
2023-05-02T04:48:25.279Z,102296.09
2023-05-02T04:50:59.006Z,102300.44
2023-05-02T04:53:34.934Z,102306.97
2023-05-02T04:56:08.860Z,102314.00
2023-05-02T04:58:43.715Z,102311.13
2023-05-02T05:01:18.605Z,102306.09
2023-05-02T05:03:52.809Z,102315.00
2023-05-02T05:06:26.447Z,102317.31
2023-05-02T05:09:02.546Z,102324.28
2023-05-02T05:11:35.559Z,102332.09
2023-05-02T05:14:08.852Z,102339.78
2023-05-02T05:16:44.657Z,102339.00
2023-05-02T05:19:19.163Z,102341.97
2023-05-02T05:21:52.385Z,102343.69
2023-05-02T05:24:27.275Z,102348.19
2023-05-02T05:27:02.565Z,102355.84
2023-05-02T05:29:35.137Z,102352.19
2023-05-02T05:32:08.010Z,102358.59
2023-05-02T05:34:43.780Z,102362.28
2023-05-02T05:37:18.070Z,102369.50
2023-05-02T05:39:53.319Z,102372.59
2023-05-02T05:42:28.203Z,102380.19
2023-05-02T05:45:07.002Z,102373.06
2023-05-02T05:47:40.611Z,102379.69
2023-05-02T05:50:16.362Z,102381.19
2023-05-02T05:52:50.978Z,102389.91
2023-05-02T05:55:25.902Z,102394.88
2023-05-02T05:57:59.157Z,102397.72
2023-05-02T06:00:32.351Z,102411.47
2023-05-02T06:03:08.140Z,102408.63
2023-05-02T06:05:42.786Z,102412.16
2023-05-02T06:08:16.426Z,102413.28
2023-05-02T06:10:50.894Z,102421.44
2023-05-02T06:13:23.987Z,102427.66
2023-05-02T06:16:01.964Z,102433.84
2023-05-02T06:18:35.939Z,102430.50
2023-05-02T06:21:08.824Z,102444.63
2023-05-02T06:23:41.724Z,102443.47
2023-05-02T06:26:17.317Z,102440.81
2023-05-02T06:28:50.647Z,102457.06
2023-05-02T06:31:32.751Z,102450.75
2023-05-02T06:34:07.298Z,102451.91
2023-05-02T06:36:40.179Z,102460.16
2023-05-02T06:39:13.356Z,102456.50
2023-05-02T06:42:36.664Z,102466.66
2023-05-02T06:45:37.507Z,102465.81
2023-05-02T06:48:47.376Z,102472.16
2023-05-02T06:51:33.825Z,102475.53
2023-05-02T06:54:18.786Z,102486.97
2023-05-02T06:57:07.088Z,102492.72
2023-05-02T06:59:54.545Z,102483.28
2023-05-02T07:02:28.051Z,102483.91
2023-05-02T07:05:36.517Z,102479.91
2023-05-02T07:25:56.421Z,102510.59
2023-05-02T07:28:35.641Z,102511.28
2023-05-02T07:31:10.524Z,102513.19
2023-05-02T07:33:45.308Z,102516.03
2023-05-02T07:36:19.169Z,102519.13
2023-05-02T07:38:58.752Z,102529.00
2023-05-02T07:41:37.903Z,102530.81
2023-05-02T07:44:30.876Z,102540.94
2023-05-02T07:47:17.769Z,102542.00
2023-05-02T07:49:55.050Z,102544.94
2023-05-02T07:52:57.240Z,102551.47
2023-05-02T07:59:10.212Z,102550.00
2023-05-02T08:02:31.109Z,102550.50
2023-05-02T08:05:06.867Z,102558.03
2023-05-02T08:07:42.520Z,102555.09
2023-05-02T08:10:15.763Z,102554.47
2023-05-02T08:12:53.222Z,102563.28
2023-05-02T08:15:27.804Z,102563.88
2023-05-02T08:18:05.027Z,102559.94
2023-05-02T08:20:38.763Z,102559.22
2023-05-02T08:23:23.503Z,102559.72
2023-05-02T08:26:01.119Z,102569.66
2023-05-02T08:28:34.302Z,102570.13
2023-05-02T08:31:08.925Z,102574.06
2023-05-02T08:33:42.323Z,102581.72
2023-05-02T08:36:16.836Z,102589.47
2023-05-02T08:38:49.862Z,102595.25
2023-05-02T08:41:23.512Z,102594.88
2023-05-02T08:43:58.041Z,102598.31
2023-05-02T08:46:33.169Z,102594.50
2023-05-02T08:49:07.524Z,102591.78
2023-05-02T08:51:42.334Z,102594.75
2023-05-02T08:54:18.256Z,102600.44
2023-05-02T08:56:51.106Z,102607.94
2023-05-02T08:59:23.944Z,102612.63
2023-05-02T09:02:06.199Z,102617.88
2023-05-02T09:04:43.084Z,102622.38
2023-05-02T09:07:16.150Z,102605.03
2023-05-02T09:09:48.872Z,102613.91
2023-05-02T09:12:26.540Z,102612.09
2023-05-02T09:15:13.132Z,102614.34
2023-05-02T09:17:48.879Z,102610.66
2023-05-02T09:20:23.653Z,102610.69
2023-05-02T09:22:59.693Z,102628.78
2023-05-02T09:25:37.745Z,102624.69
2023-05-02T09:28:10.543Z,102629.59
2023-05-02T09:30:43.853Z,102631.38
2023-05-02T09:33:27.970Z,102638.34
2023-05-02T09:36:00.780Z,102641.22
2023-05-02T09:38:34.176Z,102639.84
2023-05-02T09:41:07.068Z,102643.81
2023-05-02T09:43:39.773Z,102655.81
2023-05-02T09:46:12.759Z,102642.66
2023-05-02T09:48:54.786Z,102648.28
2023-05-02T09:51:27.497Z,102653.25
2023-05-02T09:54:00.500Z,102653.31
2023-05-02T09:56:33.457Z,102655.16
2023-05-02T09:59:14.884Z,102645.22
2023-05-02T10:01:56.637Z,102651.72
2023-05-02T10:04:32.603Z,102656.69
2023-05-02T10:07:06.651Z,102655.53
2023-05-02T10:09:44.102Z,102656.44
2023-05-02T10:12:17.575Z,102659.19
2023-05-02T10:14:56.405Z,102663.53
2023-05-02T10:17:32.494Z,102679.03
2023-05-02T10:20:08.426Z,102666.47
2023-05-02T10:22:42.301Z,102660.16
2023-05-02T10:25:15.689Z,102661.00
2023-05-02T10:27:49.285Z,102656.28
2023-05-02T10:30:22.200Z,102661.19
2023-05-02T10:33:01.617Z,102673.50
2023-05-02T10:35:42.310Z,102670.38
2023-05-02T10:38:22.315Z,102666.03
2023-05-02T10:41:03.017Z,102680.81
2023-05-02T10:43:40.901Z,102672.50
2023-05-02T10:46:43.315Z,102674.94
2023-05-02T10:49:16.873Z,102674.53
2023-05-02T10:51:54.634Z,102686.91
2023-05-02T10:54:27.446Z,102670.16
2023-05-02T10:57:07.742Z,102683.69
2023-05-02T10:59:41.608Z,102674.13
2023-05-02T11:02:51.752Z,102687.66
2023-05-02T11:05:25.329Z,102690.84
2023-05-02T11:08:31.549Z,102697.25
2023-05-02T11:11:45.855Z,102696.84
2023-05-02T11:14:50.036Z,102691.69
2023-05-02T11:17:23.425Z,102697.97
2023-05-02T11:20:29.822Z,102697.97
2023-05-02T11:23:22.877Z,102698.72
2023-05-02T11:25:57.312Z,102700.22
2023-05-02T11:28:48.304Z,102698.56
2023-05-02T11:31:56.681Z,102704.22
2023-05-02T11:34:30.045Z,102704.88
2023-05-02T11:37:12.615Z,102709.34
2023-05-02T11:39:46.686Z,102709.25
2023-05-02T11:42:29.923Z,102717.88
2023-05-02T11:45:02.951Z,102713.47
2023-05-02T11:47:37.690Z,102726.97
2023-05-02T11:50:11.465Z,102722.03
2023-05-02T11:52:46.405Z,102726.91
2023-05-02T11:55:19.163Z,102720.38
2023-05-02T11:57:52.174Z,102728.78
2023-05-02T12:00:29.119Z,102732.19
2023-05-02T12:03:03.551Z,102729.47
2023-05-02T12:05:36.820Z,102735.41
2023-05-02T12:08:19.676Z,102748.50
2023-05-02T12:10:54.068Z,102749.56
2023-05-02T12:13:27.784Z,102750.72
2023-05-02T12:16:01.919Z,102744.06
2023-05-02T12:18:36.412Z,102745.56
2023-05-02T12:21:09.987Z,102746.84
2023-05-02T12:23:43.037Z,102756.78
2023-05-02T12:26:19.740Z,102746.16
2023-05-02T12:28:54.684Z,102748.38
2023-05-02T12:31:31.103Z,102755.16
2023-05-02T12:34:05.776Z,102739.03
2023-05-02T12:36:45.386Z,102746.78
2023-05-02T12:39:18.146Z,102754.13
2023-05-02T12:41:51.552Z,102761.94
2023-05-02T12:44:38.635Z,102770.78
2023-05-02T12:47:13.117Z,102773.66
2023-05-02T12:49:54.810Z,102769.16
2023-05-02T12:52:48.924Z,102774.47
2023-05-02T12:55:24.321Z,102776.34
2023-05-02T12:58:02.168Z,102776.97
2023-05-02T13:00:38.201Z,102767.25
2023-05-02T13:03:11.686Z,102778.81
2023-05-02T13:05:46.075Z,102772.34
2023-05-02T13:08:18.964Z,102781.13
2023-05-02T13:10:51.620Z,102779.66
2023-05-02T13:13:24.840Z,102781.91
2023-05-02T13:15:57.734Z,102785.78
2023-05-02T13:18:30.649Z,102777.44
2023-05-02T13:21:05.375Z,102781.41
2023-05-02T13:23:39.923Z,102787.25
2023-05-02T13:26:13.549Z,102787.53
2023-05-02T13:28:46.266Z,102782.28
2023-05-02T13:31:19.129Z,102782.56
2023-05-02T13:33:52.237Z,102786.09
2023-05-02T13:36:27.059Z,102794.41
2023-05-02T13:38:59.774Z,102794.25
2023-05-02T13:41:32.614Z,102796.72
2023-05-02T13:44:05.363Z,102797.13
2023-05-02T13:46:38.463Z,102799.22
2023-05-02T13:49:11.799Z,102797.06
2023-05-02T13:51:45.665Z,102803.69
2023-05-02T13:54:18.697Z,102795.38
2023-05-02T13:56:51.494Z,102806.13
2023-05-02T13:59:24.124Z,102806.84
2023-05-02T14:01:57.072Z,102815.13
2023-05-02T14:04:29.858Z,102820.41
2023-05-02T14:07:05.397Z,102830.75
2023-05-02T14:09:38.205Z,102820.91
2023-05-02T14:12:11.237Z,102814.44
2023-05-02T14:14:44.031Z,102809.88
2023-05-02T14:17:16.753Z,102814.81
2023-05-02T14:19:49.629Z,102816.72
2023-05-02T14:22:24.086Z,102815.25
2023-05-02T14:24:57.130Z,102815.38
2023-05-02T14:27:30.065Z,102812.03
2023-05-02T14:30:03.217Z,102799.84
2023-05-02T14:32:36.487Z,102798.28
2023-05-02T14:35:10.357Z,102807.44
2023-05-02T14:37:46.983Z,102804.47
2023-05-02T14:40:22.757Z,102806.03
2023-05-02T14:42:55.538Z,102807.19
2023-05-02T14:45:28.098Z,102808.44
2023-05-02T14:48:01.131Z,102801.56
2023-05-02T14:50:33.944Z,102799.22
2023-05-02T14:53:08.174Z,102794.41
2023-05-02T15:04:37.107Z,102792.91
2023-05-02T15:07:10.409Z,102802.66
2023-05-02T15:09:44.865Z,102789.56
2023-05-02T15:12:18.242Z,102794.94
2023-05-02T15:14:50.935Z,102802.16
2023-05-02T15:17:24.119Z,102804.69
2023-05-02T15:19:58.484Z,102810.66
2023-05-02T15:22:31.412Z,102807.84
2023-05-02T15:25:06.355Z,102803.94
2023-05-02T15:27:39.080Z,102804.78
2023-05-02T15:30:12.064Z,102808.03
2023-05-02T15:32:44.826Z,102810.53
2023-05-02T15:35:17.989Z,102809.88
2023-05-02T15:37:50.718Z,102816.34
2023-05-02T15:40:25.992Z,102827.47
2023-05-02T15:42:58.766Z,102811.09
2023-05-02T15:45:31.724Z,102814.91
2023-05-02T15:48:04.839Z,102821.34
2023-05-02T15:50:37.716Z,102814.91
2023-05-02T15:53:10.516Z,102810.91
2023-05-02T15:55:46.038Z,102809.81
2023-05-02T15:58:19.756Z,102813.56
2023-05-02T16:00:52.981Z,102813.59
2023-05-02T16:03:25.906Z,102805.31
2023-05-02T16:05:59.508Z,102812.88
2023-05-02T16:08:32.494Z,102809.75
2023-05-02T16:11:06.767Z,102805.03
2023-05-02T16:13:40.377Z,102807.16
2023-05-02T16:16:13.757Z,102810.00
2023-05-02T16:18:49.660Z,102809.59
2023-05-02T16:21:22.664Z,102808.53
2023-05-02T16:23:55.486Z,102809.78
2023-05-02T16:26:30.312Z,102803.09
2023-05-02T16:29:03.820Z,102797.56
2023-05-02T16:31:36.875Z,102795.22
2023-05-02T16:34:32.691Z,102795.22
2023-05-02T16:37:05.829Z,102795.25
2023-05-02T16:39:39.964Z,102799.31
2023-05-02T16:42:14.184Z,102794.94
2023-05-02T16:44:47.047Z,102806.50
2023-05-02T16:47:19.829Z,102807.31
2023-05-02T16:49:56.068Z,102800.91
2023-05-02T16:52:29.614Z,102794.94
2023-05-02T16:55:03.733Z,102800.09
2023-05-02T16:57:39.251Z,102784.53
2023-05-02T17:00:19.058Z,102803.66
2023-05-02T17:02:55.071Z,102803.19
2023-05-02T17:05:28.094Z,102793.56
2023-05-02T17:08:03.287Z,102787.94
2023-05-02T17:10:36.087Z,102788.31
2023-05-02T17:13:10.220Z,102796.63
2023-05-02T17:15:43.550Z,102805.28
2023-05-02T17:18:17.037Z,102798.06
2023-05-02T17:20:49.865Z,102812.25
2023-05-02T17:23:23.083Z,102810.63
2023-05-02T17:25:56.082Z,102807.78
2023-05-02T17:28:30.459Z,102809.69
2023-05-02T17:31:03.375Z,102811.59
2023-05-02T17:33:36.047Z,102797.53
2023-05-02T17:36:09.391Z,102804.56
2023-05-02T17:38:43.838Z,102803.59
2023-05-02T17:41:16.646Z,102807.84
2023-05-02T17:43:53.146Z,102806.53
2023-05-02T17:46:25.917Z,102816.78
2023-05-02T17:48:58.753Z,102796.84
2023-05-02T17:51:32.265Z,102800.72
2023-05-02T17:54:05.282Z,102795.81
2023-05-02T17:56:38.150Z,102802.03
2023-05-02T17:59:12.505Z,102802.66
2023-05-02T18:01:45.431Z,102800.13
2023-05-02T18:04:19.273Z,102806.84
2023-05-02T18:06:52.233Z,102807.06
2023-05-02T18:09:27.942Z,102813.69
2023-05-02T18:12:04.284Z,102817.97
2023-05-02T18:14:58.664Z,102818.66
2023-05-02T18:20:33.183Z,102809.19
2023-05-02T18:23:11.629Z,102814.31
2023-05-02T18:26:01.299Z,102815.63
2023-05-02T18:28:35.337Z,102809.63
2023-05-02T18:31:37.473Z,102818.69
2023-05-02T18:34:11.265Z,102817.97
2023-05-02T18:36:49.139Z,102822.91
2023-05-02T18:39:21.856Z,102821.44
2023-05-02T18:41:54.658Z,102809.78
2023-05-02T18:44:27.974Z,102816.06
2023-05-02T18:47:02.140Z,102814.09
2023-05-02T18:49:35.107Z,102818.75
2023-05-02T18:52:08.033Z,102822.31
2023-05-02T18:54:43.934Z,102826.63
2023-05-02T18:57:16.891Z,102831.34
2023-05-02T18:59:50.069Z,102830.06
2023-05-02T19:02:24.878Z,102826.41
2023-05-02T19:05:02.394Z,102831.31
2023-05-02T19:07:42.557Z,102832.56
2023-05-02T19:10:34.088Z,102831.34
2023-05-02T19:13:08.714Z,102830.47
2023-05-02T19:15:47.639Z,102832.31
2023-05-02T19:18:30.497Z,102835.66
2023-05-02T19:21:24.702Z,102837.88
2023-05-02T19:24:00.630Z,102837.00
2023-05-02T19:26:42.134Z,102842.84
2023-05-02T19:29:40.833Z,102835.72
2023-05-02T19:32:23.422Z,102853.38
2023-05-02T19:35:17.685Z,102864.22
2023-05-02T19:37:52.338Z,102851.00
2023-05-02T19:40:25.264Z,102850.03
2023-05-02T19:43:02.450Z,102854.44
2023-05-02T19:45:53.603Z,102861.75
2023-05-02T19:48:42.483Z,102860.16
2023-05-02T19:51:34.073Z,102852.63
2023-05-02T19:54:16.002Z,102854.16
2023-05-02T19:57:02.537Z,102855.00
2023-05-02T19:59:37.984Z,102855.44
2023-05-02T20:07:12.941Z,102859.66
2023-05-02T20:10:37.461Z,102857.13
2023-05-02T20:14:08.643Z,102865.66
2023-05-02T20:16:45.963Z,102860.81
2023-05-02T20:19:20.008Z,102871.50
2023-05-02T20:21:56.393Z,102871.66
2023-05-02T20:24:29.174Z,102876.72
2023-05-02T20:27:02.660Z,102876.97
2023-05-02T20:29:35.495Z,102877.84
2023-05-02T20:32:08.384Z,102878.34
2023-05-02T20:34:41.375Z,102869.69
2023-05-02T20:43:31.479Z,102877.19
2023-05-02T20:46:10.082Z,102876.72
2023-05-02T20:48:43.540Z,102878.34
2023-05-02T20:51:16.715Z,102877.03
2023-05-02T20:53:49.554Z,102876.97
2023-05-02T20:56:22.553Z,102874.41
2023-05-02T20:58:57.200Z,102879.25
2023-05-02T21:01:30.005Z,102880.03
2023-05-02T21:04:03.443Z,102877.03
2023-05-02T21:09:29.613Z,102888.31
2023-05-02T21:12:02.632Z,102891.84
2023-05-02T21:14:36.710Z,102892.31
2023-05-02T21:17:09.562Z,102881.03
2023-05-02T21:19:42.740Z,102882.63
2023-05-02T21:22:15.951Z,102873.91
2023-05-02T21:24:50.311Z,102871.34
2023-05-02T21:27:24.157Z,102870.16
2023-05-02T21:29:58.268Z,102863.84
2023-05-02T21:32:31.828Z,102867.66
2023-05-02T21:35:05.120Z,102864.66
2023-05-02T21:37:38.271Z,102861.56
2023-05-02T21:40:13.241Z,102851.78
2023-05-02T21:42:46.251Z,102855.22
2023-05-02T21:45:20.572Z,102850.72
2023-05-02T21:47:54.201Z,102854.06
2023-05-02T21:50:40.278Z,102849.91
2023-05-02T21:53:14.223Z,102853.25
2023-05-02T21:55:47.200Z,102854.06
2023-05-02T21:58:19.780Z,102854.22
2023-05-02T22:00:54.188Z,102857.50
2023-05-02T22:03:30.304Z,102863.63
2023-05-02T22:06:06.830Z,102860.53
2023-05-02T22:08:40.221Z,102863.09
2023-05-02T22:11:13.107Z,102867.06
2023-05-02T22:13:45.988Z,102860.28
2023-05-02T22:16:21.630Z,102874.31
2023-05-02T22:18:54.518Z,102866.41
2023-05-02T22:21:27.491Z,102869.81
2023-05-02T22:24:00.793Z,102872.44
2023-05-02T22:26:33.884Z,102866.94
2023-05-02T22:29:06.822Z,102868.28
2023-05-02T22:31:42.280Z,102864.56
2023-05-02T22:34:15.879Z,102864.97
2023-05-02T22:36:48.780Z,102871.81
2023-05-02T22:39:21.757Z,102866.47
2023-05-02T22:41:54.505Z,102872.00
2023-05-02T22:44:27.458Z,102860.06
2023-05-02T22:47:01.720Z,102869.59
2023-05-02T22:49:34.671Z,102866.28
2023-05-02T22:52:10.303Z,102863.94
2023-05-02T22:54:43.159Z,102871.72
2023-05-02T22:57:16.114Z,102873.06
2023-05-02T22:59:48.953Z,102876.63
2023-05-02T23:02:23.208Z,102882.94
2023-05-02T23:04:56.359Z,102874.41
2023-05-02T23:07:29.125Z,102872.09
2023-05-02T23:10:06.140Z,102868.38
2023-05-02T23:12:39.542Z,102877.16
2023-05-02T23:15:13.147Z,102866.97
2023-05-02T23:17:47.516Z,102875.69
2023-05-02T23:20:22.811Z,102872.78
2023-05-02T23:22:56.327Z,102873.28
2023-05-02T23:25:29.126Z,102875.03
2023-05-02T23:28:02.524Z,102871.97
2023-05-02T23:30:35.706Z,102865.03
2023-05-02T23:33:10.419Z,102870.56
2023-05-02T23:35:43.530Z,102863.78
2023-05-02T23:38:16.254Z,102878.00
2023-05-02T23:40:49.178Z,102881.88
2023-05-02T23:43:21.932Z,102881.88
2023-05-02T23:45:54.839Z,102882.53
2023-05-02T23:48:28.944Z,102893.38
2023-05-02T23:51:02.137Z,102883.00
2023-05-02T23:53:34.943Z,102885.44
2023-05-02T23:56:08.421Z,102883.81
2023-05-02T23:58:41.310Z,102885.94
